createdAt,value
2023-04-18T00:00:20.921Z,80
2023-04-18T00:01:21.798Z,80
2023-04-18T00:02:22.943Z,80
2023-04-18T00:03:25.929Z,79
2023-04-18T00:04:55.241Z,78
2023-04-18T00:05:48.553Z,78
2023-04-18T00:06:27.690Z,79
2023-04-18T00:07:32.960Z,79
2023-04-18T00:08:28.534Z,78
2023-04-18T00:09:21.785Z,78
2023-04-18T00:10:20.001Z,79
2023-04-18T00:12:01.948Z,79
2023-04-18T00:12:30.545Z,80
2023-04-18T00:13:34.121Z,78
2023-04-18T00:14:22.678Z,78
2023-04-18T00:15:31.678Z,79
2023-04-18T00:16:23.452Z,78
2023-04-18T00:18:35.391Z,79
2023-04-18T00:19:53.365Z,78
2023-04-18T00:20:38.565Z,78
2023-04-18T00:21:45.357Z,78
2023-04-18T00:22:34.940Z,78
2023-04-18T00:23:28.803Z,78
2023-04-18T00:24:22.070Z,78
2023-04-18T00:25:20.653Z,79
2023-04-18T00:26:55.331Z,78
2023-04-18T00:27:42.249Z,78
2023-04-18T00:28:21.585Z,78
2023-04-18T00:29:33.822Z,78
2023-04-18T00:30:33.927Z,78
2023-04-18T00:31:25.841Z,78
2023-04-18T00:32:24.658Z,79
2023-04-18T00:33:57.556Z,80
2023-04-18T00:34:24.026Z,79
2023-04-18T00:35:33.004Z,79
2023-04-18T00:36:51.390Z,79
2023-04-18T00:37:37.228Z,79
2023-04-18T00:38:30.358Z,80
2023-04-18T00:40:21.643Z,80
2023-04-18T00:41:48.056Z,80
2023-04-18T00:42:36.208Z,80
2023-04-18T00:43:21.991Z,80
2023-04-18T00:44:41.944Z,79
2023-04-18T00:46:30.003Z,79
2023-04-18T00:47:20.540Z,80
2023-04-18T00:48:50.647Z,80
2023-04-18T00:49:59.524Z,79
2023-04-18T00:50:23.875Z,80
2023-04-18T00:51:28.571Z,80
2023-04-18T00:52:40.681Z,80
2023-04-18T00:53:32.360Z,80
2023-04-18T00:54:25.572Z,80
2023-04-18T00:55:22.313Z,80
2023-04-18T00:56:41.435Z,80
2023-04-18T00:57:28.095Z,80
2023-04-18T00:58:50.325Z,80
2023-04-18T00:59:43.250Z,79
2023-04-18T01:00:39.345Z,79
2023-04-18T01:01:26.300Z,79
2023-04-18T01:10:24.524Z,80
2023-04-18T01:11:34.693Z,80
2023-04-18T01:19:50.328Z,80
2023-04-18T01:20:42.308Z,80
2023-04-18T01:21:45.355Z,81
2023-04-18T01:22:31.507Z,81
2023-04-18T01:23:34.112Z,82
2023-04-18T01:24:27.459Z,82
2023-04-18T01:25:19.236Z,82
2023-04-18T01:26:25.772Z,81
2023-04-18T01:28:00.428Z,80
2023-04-18T01:28:48.454Z,80
2023-04-18T01:29:38.899Z,81
2023-04-18T01:30:24.593Z,82
2023-04-18T01:31:30.368Z,80
2023-04-18T01:32:23.926Z,80
2023-04-18T01:33:22.280Z,80
2023-04-18T01:35:09.638Z,81
2023-04-18T01:36:28.805Z,81
2023-04-18T01:37:25.774Z,81
2023-04-18T01:38:34.270Z,80
2023-04-18T01:39:29.398Z,81
2023-04-18T01:40:21.137Z,80
2023-04-18T01:43:42.057Z,80
2023-04-18T01:44:28.278Z,81
2023-04-18T01:45:41.322Z,81
2023-04-18T01:46:31.944Z,80
2023-04-18T01:47:27.109Z,80
2023-04-18T01:48:24.390Z,81
2023-04-18T01:49:52.163Z,81
2023-04-18T01:50:44.869Z,80
2023-04-18T01:51:31.540Z,80
2023-04-18T01:52:48.400Z,80
2023-04-18T01:53:30.755Z,80
2023-04-18T01:54:30.809Z,80
2023-04-18T01:55:28.547Z,81
2023-04-18T01:56:19.705Z,81
2023-04-18T01:57:47.271Z,81
2023-04-18T01:58:23.292Z,81
2023-04-18T01:59:19.608Z,81
2023-04-18T02:00:42.672Z,81
2023-04-18T02:01:35.188Z,81
2023-04-18T02:02:29.287Z,81
2023-04-18T02:03:19.703Z,81
2023-04-18T02:04:26.173Z,81
2023-04-18T02:05:35.517Z,81
2023-04-18T02:06:23.928Z,81
2023-04-18T02:07:45.653Z,81
2023-04-18T02:08:38.561Z,80
2023-04-18T02:09:34.666Z,82
2023-04-18T02:11:20.311Z,81
2023-04-18T02:12:40.299Z,80
2023-04-18T02:13:27.185Z,81
2023-04-18T02:14:50.393Z,81
2023-04-18T02:15:23.127Z,81
2023-04-18T02:16:40.991Z,81
2023-04-18T02:17:22.052Z,82
2023-04-18T02:18:21.086Z,82
2023-04-18T02:19:45.937Z,81
2023-04-18T02:20:28.527Z,81
2023-04-18T02:21:27.973Z,81
2023-04-18T02:22:42.702Z,82
2023-04-18T02:23:39.875Z,82
2023-04-18T02:24:25.460Z,82
2023-04-18T02:25:24.970Z,82
2023-04-18T02:26:22.240Z,83
2023-04-18T02:27:32.914Z,83
2023-04-18T02:28:47.549Z,82
2023-04-18T02:29:53.335Z,81
2023-04-18T02:30:41.189Z,81
2023-04-18T02:31:26.544Z,81
2023-04-18T02:32:25.014Z,81
2023-04-18T02:33:22.699Z,81
2023-04-18T02:34:34.404Z,81
2023-04-18T02:35:22.986Z,81
2023-04-18T02:36:58.751Z,81
2023-04-18T02:38:32.039Z,81
2023-04-18T02:39:34.885Z,81
2023-04-18T02:40:28.700Z,81
2023-04-18T02:41:20.594Z,81
2023-04-18T02:42:24.689Z,81
2023-04-18T02:43:22.627Z,81
2023-04-18T02:44:37.432Z,81
2023-04-18T02:45:34.545Z,81
2023-04-18T02:46:21.616Z,81
2023-04-18T02:47:46.944Z,81
2023-04-18T02:48:23.615Z,82
2023-04-18T02:49:21.536Z,82
2023-04-18T02:50:43.927Z,82
2023-04-18T02:51:50.125Z,83
2023-04-18T02:52:37.111Z,82
2023-04-18T02:53:23.128Z,82
2023-04-18T02:54:39.220Z,81
2023-04-18T02:55:33.776Z,82
2023-04-18T02:56:24.842Z,83
2023-04-18T02:57:59.635Z,83
2023-04-18T02:58:54.177Z,82
2023-04-18T02:59:57.295Z,82
2023-04-18T03:01:45.487Z,82
2023-04-18T03:02:36.230Z,82
2023-04-18T03:06:31.135Z,81
2023-04-18T03:07:28.560Z,81
2023-04-18T03:08:46.930Z,81
2023-04-18T03:09:39.562Z,82
2023-04-18T03:11:25.821Z,81
2023-04-18T03:12:34.235Z,82
2023-04-18T03:13:48.599Z,81
2023-04-18T03:14:33.567Z,81
2023-04-18T03:15:51.270Z,82
2023-04-18T03:16:44.421Z,81
2023-04-18T03:17:27.216Z,81
2023-04-18T03:18:30.265Z,81
2023-04-18T03:20:49.184Z,82
2023-04-18T03:22:02.559Z,82
2023-04-18T03:22:21.908Z,81
2023-04-18T03:23:32.791Z,82
2023-04-18T03:24:45.669Z,82
2023-04-18T03:26:26.325Z,82
2023-04-18T03:29:24.643Z,82
2023-04-18T03:30:52.281Z,82
2023-04-18T03:33:29.742Z,82
2023-04-18T03:34:24.303Z,82
2023-04-18T03:35:44.208Z,82
2023-04-18T03:36:29.883Z,82
2023-04-18T03:37:56.002Z,82
2023-04-18T03:38:50.113Z,82
2023-04-18T03:39:21.914Z,82
2023-04-18T03:40:23.592Z,83
2023-04-18T03:42:21.481Z,83
2023-04-18T03:43:32.673Z,83
2023-04-18T03:44:58.537Z,83
2023-04-18T03:45:53.424Z,83
2023-04-18T03:46:39.534Z,83
2023-04-18T03:47:27.543Z,82
2023-04-18T03:48:30.656Z,83
2023-04-18T03:49:24.119Z,83
2023-04-18T03:50:33.526Z,83
2023-04-18T03:52:43.182Z,84
2023-04-18T03:53:44.675Z,84
2023-04-18T03:54:29.554Z,84
2023-04-18T03:55:34.718Z,84
2023-04-18T03:56:22.803Z,84
2023-04-18T03:57:21.680Z,84
2023-04-18T03:58:23.820Z,85
2023-04-18T04:00:02.972Z,85
2023-04-18T04:00:46.770Z,84
2023-04-18T04:01:33.139Z,83
2023-04-18T04:02:27.649Z,83
2023-04-18T04:03:31.626Z,84
2023-04-18T04:04:25.849Z,84
2023-04-18T04:05:27.304Z,84
2023-04-18T04:07:05.168Z,84
2023-04-18T04:07:48.665Z,84
2023-04-18T04:08:36.648Z,84
2023-04-18T04:11:30.558Z,85
2023-04-18T04:12:22.591Z,84
2023-04-18T04:13:24.328Z,85
2023-04-18T04:14:37.315Z,84
2023-04-18T04:15:39.951Z,84
2023-04-18T04:16:27.231Z,84
2023-04-18T04:17:41.251Z,84
2023-04-18T04:18:32.537Z,84
2023-04-18T04:19:27.167Z,84
2023-04-18T04:20:42.852Z,83
2023-04-18T04:22:45.100Z,85
2023-04-18T04:23:28.791Z,84
2023-04-18T04:24:22.281Z,84
2023-04-18T04:25:38.619Z,84
2023-04-18T04:26:31.671Z,83
2023-04-18T04:28:01.556Z,84
2023-04-18T04:28:58.399Z,84
2023-04-18T04:29:45.080Z,83
2023-04-18T04:30:27.052Z,83
2023-04-18T04:31:38.619Z,83
2023-04-18T04:32:44.934Z,84
2023-04-18T04:33:35.661Z,83
2023-04-18T04:34:25.659Z,83
2023-04-18T04:36:16.719Z,84
2023-04-18T04:37:35.873Z,84
2023-04-18T04:38:22.724Z,83
2023-04-18T04:39:45.577Z,83
2023-04-18T04:41:25.797Z,83
2023-04-18T04:42:41.364Z,84
2023-04-18T04:44:03.805Z,83
2023-04-18T04:45:27.153Z,84
2023-04-18T04:46:51.890Z,84
2023-04-18T04:47:29.311Z,84
2023-04-18T04:48:36.596Z,84
2023-04-18T04:49:28.807Z,83
2023-04-18T04:50:20.718Z,83
2023-04-18T04:52:08.119Z,83
2023-04-18T04:53:34.945Z,83
2023-04-18T04:56:23.620Z,83
2023-04-18T04:57:24.262Z,82
2023-04-18T04:58:24.870Z,83
2023-04-18T04:59:32.124Z,83
2023-04-18T05:00:52.069Z,83
2023-04-18T05:01:52.357Z,83
2023-04-18T05:02:39.309Z,83
2023-04-18T05:03:24.517Z,83
2023-04-18T05:04:30.535Z,83
2023-04-18T05:05:22.144Z,83
2023-04-18T05:06:32.792Z,83
2023-04-18T05:07:20.146Z,83
2023-04-18T05:08:56.946Z,83
2023-04-18T05:09:21.743Z,83
2023-04-18T05:10:36.639Z,83
2023-04-18T05:11:34.429Z,83
2023-04-18T05:12:28.380Z,83
2023-04-18T05:13:19.320Z,82
2023-04-18T05:14:22.881Z,82
2023-04-18T05:15:27.665Z,82
2023-04-18T05:16:41.125Z,82
2023-04-18T05:17:31.012Z,82
2023-04-18T05:18:37.487Z,82
2023-04-18T05:19:30.189Z,82
2023-04-18T05:20:25.171Z,83
2023-04-18T05:21:31.817Z,82
2023-04-18T05:23:47.901Z,82
2023-04-18T05:24:36.619Z,82
2023-04-18T05:26:26.126Z,82
2023-04-18T05:27:29.732Z,82
2023-04-18T05:28:22.799Z,82
2023-04-18T05:30:08.627Z,82
2023-04-18T05:30:51.557Z,82
2023-04-18T05:31:38.449Z,82
2023-04-18T05:32:25.125Z,82
2023-04-18T05:34:32.944Z,81
2023-04-18T05:35:26.219Z,82
2023-04-18T05:37:07.088Z,81
2023-04-18T05:38:35.431Z,81
2023-04-18T05:39:27.665Z,81
2023-04-18T05:41:37.778Z,81
2023-04-18T05:42:29.398Z,81
2023-04-18T05:43:24.535Z,81
2023-04-18T05:44:38.898Z,82
2023-04-18T05:45:45.110Z,81
2023-04-18T05:46:31.509Z,81
2023-04-18T05:47:49.426Z,81
2023-04-18T05:48:42.746Z,81
2023-04-18T05:49:35.553Z,81
2023-04-18T05:50:28.232Z,81
2023-04-18T05:51:19.367Z,81
2023-04-18T05:52:47.326Z,81
2023-04-18T05:53:34.224Z,81
2023-04-18T05:54:21.109Z,81
2023-04-18T05:55:37.010Z,81
2023-04-18T05:56:38.860Z,81
2023-04-18T05:57:31.774Z,81
2023-04-18T05:58:23.866Z,81
2023-04-18T06:00:30.174Z,81
2023-04-18T06:01:46.748Z,81
2023-04-18T06:02:50.555Z,81
2023-04-18T06:03:45.416Z,80
2023-04-18T06:05:21.469Z,81
2023-04-18T06:06:21.086Z,80
2023-04-18T06:07:38.781Z,80
2023-04-18T06:08:27.355Z,81
2023-04-18T06:09:52.529Z,80
2023-04-18T06:10:48.054Z,80
2023-04-18T06:11:27.229Z,80
2023-04-18T06:12:21.654Z,80
2023-04-18T06:13:25.325Z,80
2023-04-18T06:14:43.612Z,80
2023-04-18T06:15:31.611Z,80
2023-04-18T06:16:59.265Z,80
2023-04-18T06:17:31.595Z,80
2023-04-18T06:19:25.271Z,80
2023-04-18T06:20:30.659Z,80
2023-04-18T06:21:22.371Z,80
2023-04-18T06:22:31.884Z,80
2023-04-18T06:23:36.090Z,79
2023-04-18T06:24:49.070Z,79
2023-04-18T06:25:42.178Z,79
2023-04-18T06:26:28.851Z,79
2023-04-18T06:27:32.619Z,79
2023-04-18T06:28:27.001Z,79
2023-04-18T06:29:21.128Z,79
2023-04-18T06:30:21.854Z,79
2023-04-18T06:31:57.621Z,79
2023-04-18T06:32:45.920Z,79
2023-04-18T06:33:30.077Z,79
2023-04-18T06:34:34.489Z,79
2023-04-18T06:35:27.537Z,78
2023-04-18T06:36:21.694Z,79
2023-04-18T06:37:25.234Z,79
2023-04-18T06:39:01.526Z,79
2023-04-18T06:39:24.467Z,78
2023-04-18T06:41:21.438Z,78
2023-04-18T06:42:34.872Z,79
2023-04-18T06:43:26.261Z,78
2023-04-18T06:44:23.390Z,78
2023-04-18T06:45:29.960Z,78
2023-04-18T06:46:46.160Z,78
2023-04-18T06:47:37.142Z,78
2023-04-18T06:48:24.047Z,78
2023-04-18T06:49:36.016Z,78
2023-04-18T06:50:20.856Z,78
2023-04-18T06:51:22.679Z,78
2023-04-18T06:53:52.895Z,78
2023-04-18T06:54:40.691Z,77
2023-04-18T06:55:25.757Z,77
2023-04-18T06:56:27.752Z,77
2023-04-18T06:57:34.694Z,77
2023-04-18T06:58:27.488Z,77
2023-04-18T06:59:23.517Z,77
2023-04-18T07:00:56.513Z,77
2023-04-18T07:01:46.353Z,77
2023-04-18T07:02:32.158Z,77
2023-04-18T07:03:48.184Z,77
2023-04-18T07:04:38.286Z,76
2023-04-18T07:05:31.949Z,76
2023-04-18T07:06:26.305Z,76
2023-04-18T07:08:38.744Z,76
2023-04-18T07:09:32.969Z,76
2023-04-18T07:10:47.326Z,76
2023-04-18T07:12:33.214Z,76
2023-04-18T07:13:31.463Z,76
2023-04-18T07:15:49.356Z,76
2023-04-18T07:16:36.387Z,76
2023-04-18T07:17:22.233Z,75
2023-04-18T07:18:30.204Z,75
2023-04-18T07:19:34.428Z,75
2023-04-18T07:20:32.424Z,75
2023-04-18T07:21:24.089Z,75
2023-04-18T07:22:20.748Z,75
2023-04-18T07:23:39.250Z,75
2023-04-18T07:24:56.793Z,75
2023-04-18T07:25:38.831Z,75
2023-04-18T07:26:44.098Z,75
2023-04-18T07:27:36.291Z,74
2023-04-18T07:28:20.980Z,74
2023-04-18T07:29:20.522Z,73
2023-04-18T07:30:31.894Z,74
2023-04-18T07:31:27.401Z,74
2023-04-18T07:32:54.386Z,74
2023-04-18T07:33:47.189Z,74
2023-04-18T07:34:39.698Z,73
2023-04-18T07:35:24.529Z,73
2023-04-18T07:36:24.541Z,73
2023-04-18T07:38:32.288Z,74
2023-04-18T07:39:58.443Z,74
2023-04-18T07:40:51.331Z,73
2023-04-18T07:41:28.287Z,73
2023-04-18T07:42:26.961Z,73
2023-04-18T07:43:28.202Z,73
2023-04-18T07:44:21.246Z,73
2023-04-18T07:46:20.864Z,72
2023-04-18T07:47:33.572Z,73
2023-04-18T07:48:48.615Z,73
2023-04-18T07:49:40.820Z,73
2023-04-18T07:50:32.511Z,72
2023-04-18T07:51:26.329Z,72
2023-04-18T07:52:39.525Z,72
2023-04-18T07:53:24.903Z,71
2023-04-18T07:54:50.668Z,72
2023-04-18T07:55:47.025Z,71
2023-04-18T07:56:34.369Z,70
2023-04-18T07:57:36.783Z,71
2023-04-18T07:58:29.418Z,71
2023-04-18T07:59:23.128Z,70
2023-04-18T08:02:03.253Z,70
2023-04-18T08:02:49.234Z,71
2023-04-18T08:03:22.956Z,71
2023-04-18T08:04:22.337Z,71
2023-04-18T08:05:34.129Z,69
2023-04-18T08:06:28.887Z,69
2023-04-18T08:07:20.187Z,69
2023-04-18T08:09:07.135Z,70
2023-04-18T08:09:25.540Z,70
2023-04-18T08:10:39.656Z,69
2023-04-18T08:11:27.488Z,69
2023-04-18T08:12:37.956Z,68
2023-04-18T08:13:31.913Z,68
2023-04-18T08:14:22.997Z,70
2023-04-18T08:15:21.773Z,70
2023-04-18T08:17:42.743Z,69
2023-04-18T08:19:45.134Z,67
2023-04-18T08:20:23.418Z,68
2023-04-18T08:21:28.586Z,66
2023-04-18T08:22:24.459Z,68
2023-04-18T08:23:58.589Z,68
2023-04-18T08:25:00.952Z,65
2023-04-18T08:25:30.831Z,67
2023-04-18T08:26:30.238Z,67
2023-04-18T08:27:46.774Z,66
2023-04-18T08:28:33.594Z,66
2023-04-18T08:29:27.226Z,65
2023-04-18T08:31:20.788Z,64
2023-04-18T08:32:35.289Z,65
2023-04-18T08:33:22.301Z,64
2023-04-18T08:34:45.132Z,62
2023-04-18T08:35:37.012Z,60
2023-04-18T08:37:26.969Z,62
2023-04-18T08:38:21.122Z,58
2023-04-18T08:39:25.514Z,60
2023-04-18T08:40:25.147Z,62
2023-04-18T08:41:48.132Z,60
2023-04-18T08:42:27.066Z,57
2023-04-18T08:43:32.543Z,57
2023-04-18T08:44:25.337Z,58
2023-04-18T08:45:25.752Z,61
2023-04-18T08:46:44.081Z,59
2023-04-18T08:47:22.698Z,58
2023-04-18T08:48:21.948Z,59
2023-04-18T08:49:36.071Z,58
2023-04-18T08:50:23.365Z,58
2023-04-18T08:51:23.896Z,58
2023-04-18T08:52:22.092Z,57
2023-04-18T08:53:22.253Z,56
2023-04-18T08:54:21.375Z,58
2023-04-18T08:55:40.905Z,58
2023-04-18T08:56:27.269Z,56
2023-04-18T08:57:23.771Z,58
2023-04-18T08:58:19.525Z,56
2023-04-18T08:59:26.628Z,56
2023-04-18T09:00:19.605Z,54
2023-04-18T09:01:21.440Z,55
2023-04-18T09:02:21.767Z,53
2023-04-18T09:03:27.836Z,54
2023-04-18T09:04:23.363Z,54
2023-04-18T09:05:20.697Z,56
2023-04-18T09:06:31.480Z,54
2023-04-18T09:07:25.723Z,54
2023-04-18T09:08:25.624Z,55
2023-04-18T09:09:22.701Z,54
2023-04-18T09:10:28.386Z,53
2023-04-18T09:11:23.765Z,53
2023-04-18T09:12:19.487Z,52
2023-04-18T09:13:30.248Z,51
2023-04-18T09:14:27.937Z,51
2023-04-18T09:15:21.254Z,50
2023-04-18T09:16:21.127Z,50
2023-04-18T09:17:29.623Z,49
2023-04-18T09:18:23.402Z,50
2023-04-18T09:19:20.540Z,47
2023-04-18T09:20:20.781Z,48
2023-04-18T09:21:26.371Z,46
2023-04-18T09:22:26.663Z,47
2023-04-18T09:23:25.273Z,46
2023-04-18T09:24:27.568Z,49
2023-04-18T09:25:26.231Z,48
2023-04-18T09:26:20.795Z,48
2023-04-18T09:27:23.734Z,48
2023-04-18T09:28:27.523Z,48
2023-04-18T09:29:21.718Z,49
2023-04-18T09:30:21.637Z,47
2023-04-18T09:31:23.857Z,47
2023-04-18T09:32:24.453Z,47
2023-04-18T09:33:22.007Z,47
2023-04-18T09:34:29.466Z,47
2023-04-18T09:35:26.598Z,47
2023-04-18T09:36:21.550Z,48
2023-04-18T09:37:26.960Z,46
2023-04-18T09:38:21.887Z,44
2023-04-18T09:39:21.729Z,47
2023-04-18T09:40:19.732Z,47
2023-04-18T09:41:29.976Z,47
2023-04-18T09:42:28.798Z,47
2023-04-18T09:43:21.515Z,46
2023-04-18T09:44:21.678Z,47
2023-04-18T09:45:27.270Z,46
2023-04-18T09:46:24.194Z,45
2023-04-18T09:47:20.572Z,45
2023-04-18T09:48:29.403Z,45
2023-04-18T09:49:21.671Z,46
2023-04-18T09:50:21.388Z,45
2023-04-18T09:51:33.083Z,44
2023-04-18T09:52:27.949Z,44
2023-04-18T09:53:20.773Z,44
2023-04-18T09:54:21.313Z,46
2023-04-18T09:55:30.837Z,45
2023-04-18T09:56:25.315Z,45
2023-04-18T09:57:21.707Z,44
2023-04-18T09:58:31.674Z,44
2023-04-18T09:59:28.887Z,44
2023-04-18T10:00:23.629Z,44
2023-04-18T10:01:22.822Z,46
2023-04-18T10:02:29.944Z,46
2023-04-18T10:03:25.888Z,44
2023-04-18T10:04:23.106Z,44
2023-04-18T10:05:33.935Z,44
2023-04-18T10:06:29.010Z,44
2023-04-18T10:07:23.374Z,44
2023-04-18T10:08:20.656Z,43
2023-04-18T10:09:22.388Z,42
2023-04-18T10:10:27.178Z,43
2023-04-18T10:11:21.471Z,42
2023-04-18T10:12:31.386Z,44
2023-04-18T10:13:29.324Z,43
2023-04-18T10:14:26.080Z,43
2023-04-18T10:15:19.147Z,41
2023-04-18T10:16:26.631Z,42
2023-04-18T10:17:20.227Z,42
2023-04-18T10:18:23.591Z,42
2023-04-18T10:19:31.533Z,41
2023-04-18T10:20:27.680Z,40
2023-04-18T10:21:26.096Z,39
2023-04-18T10:22:19.430Z,39
2023-04-18T10:23:23.646Z,38
2023-04-18T10:24:29.558Z,38
2023-04-18T10:25:21.870Z,37
2023-04-18T10:26:31.641Z,37
2023-04-18T10:27:28.796Z,35
2023-04-18T10:28:23.718Z,36
2023-04-18T10:29:21.934Z,38
2023-04-18T10:30:26.374Z,35
2023-04-18T10:31:27.915Z,37
2023-04-18T10:32:23.125Z,33
2023-04-18T10:33:33.948Z,35
2023-04-18T10:34:28.156Z,38
2023-04-18T10:35:27.381Z,35
2023-04-18T10:36:19.840Z,33
2023-04-18T10:37:29.377Z,35
2023-04-18T10:38:26.160Z,36
2023-04-18T10:39:21.764Z,35
2023-04-18T10:40:31.802Z,37
2023-04-18T10:41:29.522Z,37
2023-04-18T10:42:23.560Z,35
2023-04-18T10:43:21.566Z,36
2023-04-18T10:44:30.602Z,35
2023-04-18T10:45:26.676Z,35
2023-04-18T10:46:31.776Z,35
2023-04-18T10:47:22.588Z,36
2023-04-18T10:48:27.480Z,35
2023-04-18T10:49:26.902Z,35
2023-04-18T10:50:20.092Z,35
2023-04-18T10:51:29.381Z,35
2023-04-18T10:52:32.927Z,35
2023-04-18T10:53:23.928Z,35
2023-04-18T10:54:22.424Z,34
2023-04-18T10:55:19.617Z,35
2023-04-18T10:56:24.056Z,36
2023-04-18T10:57:21.359Z,35
2023-04-18T10:58:31.436Z,36
2023-04-18T10:59:25.592Z,35
2023-04-18T11:00:21.829Z,36
2023-04-18T11:01:22.429Z,35
2023-04-18T11:02:23.892Z,35
2023-04-18T11:03:24.718Z,35
2023-04-18T11:04:20.127Z,35
2023-04-18T11:05:29.886Z,35
2023-04-18T11:06:27.640Z,35
2023-04-18T11:07:21.569Z,35
2023-04-18T11:08:27.160Z,35
2023-04-18T11:09:29.444Z,36
2023-04-18T11:10:25.894Z,34
2023-04-18T11:11:19.277Z,38
2023-04-18T11:12:23.191Z,35
2023-04-18T11:13:25.475Z,34
2023-04-18T11:14:23.493Z,35
2023-04-18T11:15:35.467Z,38
2023-04-18T11:16:21.534Z,34
2023-04-18T11:17:24.950Z,36
2023-04-18T11:18:19.286Z,37
2023-04-18T11:19:25.057Z,36
2023-04-18T11:20:28.640Z,37
2023-04-18T11:21:21.466Z,37
2023-04-18T11:22:32.819Z,37
2023-04-18T11:23:28.866Z,37
2023-04-18T11:24:23.557Z,38
2023-04-18T11:25:20.216Z,36
2023-04-18T11:26:31.403Z,36
2023-04-18T11:27:25.830Z,35
2023-04-18T11:28:23.360Z,36
2023-04-18T11:29:33.223Z,35
2023-04-18T11:30:29.421Z,35
2023-04-18T11:31:25.837Z,34
2023-04-18T11:32:19.782Z,34
2023-04-18T11:33:20.305Z,33
2023-04-18T11:34:27.502Z,33
2023-04-18T11:35:21.813Z,34
2023-04-18T11:36:31.548Z,36
2023-04-18T11:37:29.663Z,37
2023-04-18T11:38:26.464Z,33
2023-04-18T11:39:21.756Z,33
2023-04-18T11:40:23.836Z,34
2023-04-18T11:41:26.404Z,34
2023-04-18T11:42:21.736Z,34
2023-04-18T11:43:33.263Z,33
2023-04-18T11:44:27.672Z,31
2023-04-18T11:45:25.160Z,32
2023-04-18T11:46:19.912Z,30
2023-04-18T11:47:29.591Z,31
2023-04-18T11:48:23.026Z,31
2023-04-18T11:49:22.414Z,30
2023-04-18T11:50:31.940Z,30
2023-04-18T11:51:28.681Z,32
2023-04-18T11:52:24.284Z,30
2023-04-18T11:53:19.864Z,30
2023-04-18T11:54:21.155Z,31
2023-04-18T11:55:27.936Z,30
2023-04-18T11:56:21.705Z,31
2023-04-18T11:57:33.753Z,30
2023-04-18T11:58:27.553Z,30
2023-04-18T11:59:23.573Z,27
2023-04-18T12:00:19.769Z,30
2023-04-18T12:01:24.239Z,30
2023-04-18T12:02:27.923Z,31
2023-04-18T12:03:22.290Z,31
2023-04-18T12:04:31.618Z,32
2023-04-18T12:05:29.013Z,32
2023-04-18T12:06:25.358Z,31
2023-04-18T12:07:21.102Z,31
2023-04-18T12:08:31.271Z,31
2023-04-18T12:09:21.835Z,33
2023-04-18T12:10:21.566Z,33
2023-04-18T12:11:21.558Z,31
2023-04-18T12:12:29.423Z,31
2023-04-18T12:13:24.362Z,33
2023-04-18T12:14:19.972Z,30
2023-04-18T12:15:33.766Z,32
2023-04-18T12:16:25.755Z,32
2023-04-18T12:17:23.172Z,31
2023-04-18T12:18:23.643Z,30
2023-04-18T12:19:27.988Z,30
2023-04-18T12:20:23.403Z,30
2023-04-18T12:21:21.263Z,30
2023-04-18T12:22:31.490Z,31
2023-04-18T12:23:26.125Z,30
2023-04-18T12:24:25.128Z,30
2023-04-18T12:25:29.827Z,29
2023-04-18T12:26:21.013Z,31
2023-04-18T12:27:23.598Z,31
2023-04-18T12:28:21.353Z,31
2023-04-18T12:29:29.822Z,31
2023-04-18T12:30:25.916Z,30
2023-04-18T12:31:23.994Z,29
2023-04-18T12:32:32.333Z,30
2023-04-18T12:33:29.393Z,29
2023-04-18T12:34:23.373Z,28
2023-04-18T12:35:19.495Z,29
2023-04-18T12:36:31.612Z,30
2023-04-18T12:37:26.424Z,30
2023-04-18T12:38:23.197Z,29
2023-04-18T12:39:24.964Z,28
2023-04-18T12:40:29.368Z,29
2023-04-18T12:41:25.105Z,30
2023-04-18T12:42:19.434Z,29
2023-04-18T12:43:29.705Z,29
2023-04-18T12:44:27.424Z,28
2023-04-18T12:45:22.037Z,28
2023-04-18T12:46:29.410Z,27
2023-04-18T12:47:20.416Z,30
2023-04-18T12:48:27.124Z,28
2023-04-18T12:49:30.272Z,26
2023-04-18T12:50:31.142Z,29
2023-04-18T12:51:25.716Z,28
2023-04-18T12:52:23.405Z,27
2023-04-18T12:53:33.342Z,29
2023-04-18T12:54:24.609Z,32
2023-04-18T12:55:20.094Z,33
2023-04-18T12:56:22.001Z,34
2023-04-18T12:57:31.669Z,31
2023-04-18T12:58:27.053Z,31
2023-04-18T12:59:22.476Z,32
2023-04-18T13:00:32.369Z,29
2023-04-18T13:01:30.309Z,27
2023-04-18T13:02:23.768Z,28
2023-04-18T13:03:19.887Z,31
2023-04-18T13:04:23.218Z,30
2023-04-18T13:05:25.623Z,28
2023-04-18T13:06:22.117Z,28
2023-04-18T13:07:33.024Z,27
2023-04-18T13:08:27.634Z,29
2023-04-18T13:09:27.224Z,29
2023-04-18T13:10:19.846Z,28
2023-04-18T13:11:25.719Z,28
2023-04-18T13:12:25.551Z,29
2023-04-18T13:13:21.731Z,29
2023-04-18T13:14:34.117Z,29
2023-04-18T13:15:28.863Z,28
2023-04-18T13:16:23.629Z,28
2023-04-18T13:17:22.545Z,28
2023-04-18T13:18:31.315Z,28
2023-04-18T13:19:22.433Z,30
2023-04-18T13:20:21.544Z,29
2023-04-18T13:21:33.578Z,29
2023-04-18T13:22:23.752Z,28
2023-04-18T13:23:24.146Z,28
2023-04-18T13:24:19.623Z,29
2023-04-18T13:25:35.053Z,29
2023-04-18T13:26:27.122Z,28
2023-04-18T13:27:21.226Z,28
2023-04-18T13:28:31.829Z,27
2023-04-18T13:29:28.460Z,29
2023-04-18T13:30:23.543Z,28
2023-04-18T13:31:21.188Z,29
2023-04-18T13:32:24.776Z,28
2023-04-18T13:33:22.507Z,28
2023-04-18T13:34:23.759Z,28
2023-04-18T13:35:33.212Z,29
2023-04-18T13:36:30.131Z,29
2023-04-18T13:37:25.530Z,28
2023-04-18T13:38:19.603Z,28
2023-04-18T13:39:29.773Z,29
2023-04-18T13:40:22.748Z,28
2023-04-18T13:41:21.514Z,28
2023-04-18T13:42:20.950Z,29
2023-04-18T13:43:29.208Z,28
2023-04-18T13:44:19.747Z,29
2023-04-18T13:45:19.512Z,28
2023-04-18T13:46:27.747Z,28
2023-04-18T13:47:26.091Z,28
2023-04-18T13:48:22.147Z,27
2023-04-18T13:49:26.904Z,27
2023-04-18T13:50:27.843Z,27
2023-04-18T13:51:23.917Z,26
2023-04-18T13:52:19.418Z,27
2023-04-18T13:53:31.120Z,27
2023-04-18T13:54:32.671Z,28
2023-04-18T13:55:21.949Z,29
2023-04-18T13:56:32.799Z,29
2023-04-18T13:57:23.009Z,28
2023-04-18T13:58:23.840Z,27
2023-04-18T13:59:20.674Z,28
2023-04-18T14:00:29.868Z,27
2023-04-18T14:01:27.410Z,27
2023-04-18T14:02:22.014Z,26
2023-04-18T14:03:29.472Z,27
2023-04-18T14:04:30.072Z,28
2023-04-18T14:05:19.651Z,27
2023-04-18T14:06:20.002Z,28
2023-04-18T14:07:31.038Z,28
2023-04-18T14:08:20.025Z,28
2023-04-18T14:09:25.332Z,28
2023-04-18T14:10:22.631Z,28
2023-04-18T14:11:28.506Z,27
2023-04-18T14:12:39.338Z,26
2023-04-18T14:13:19.819Z,29
2023-04-18T14:14:26.853Z,27
2023-04-18T14:15:25.844Z,27
2023-04-18T14:16:23.054Z,28
2023-04-18T14:17:26.343Z,27
2023-04-18T14:18:27.652Z,27
2023-04-18T14:19:24.316Z,28
2023-04-18T14:20:20.795Z,28
2023-04-18T14:21:30.710Z,28
2023-04-18T14:22:26.260Z,28
2023-04-18T14:23:22.824Z,28
2023-04-18T14:24:33.112Z,28
2023-04-18T14:25:23.401Z,27
2023-04-18T14:26:24.391Z,27
2023-04-18T14:27:19.754Z,28
2023-04-18T14:28:29.754Z,28
2023-04-18T14:29:27.484Z,28
2023-04-18T14:30:21.688Z,27
2023-04-18T14:31:27.340Z,27
2023-04-18T14:32:29.092Z,27
2023-04-18T14:33:20.478Z,28
2023-04-18T14:34:19.661Z,28
2023-04-18T14:35:24.371Z,28
2023-04-18T14:36:26.457Z,28
2023-04-18T14:37:23.471Z,28
2023-04-18T14:38:22.995Z,27
2023-04-18T14:39:27.492Z,28
2023-04-18T14:40:25.842Z,29
2023-04-18T14:41:20.420Z,29
2023-04-18T14:42:27.094Z,28
2023-04-18T14:43:19.618Z,27
2023-04-18T14:44:21.564Z,27
2023-04-18T14:45:27.610Z,27
2023-04-18T14:46:27.926Z,28
2023-04-18T14:47:24.380Z,28
2023-04-18T14:48:23.285Z,29
2023-04-18T14:49:20.917Z,28
2023-04-18T14:50:27.081Z,28
2023-04-18T14:51:21.570Z,28
2023-04-18T14:52:32.261Z,28
2023-04-18T14:53:22.387Z,28
2023-04-18T14:54:23.960Z,28
2023-04-18T14:55:19.497Z,27
2023-04-18T14:56:30.176Z,27
2023-04-18T14:57:28.797Z,27
2023-04-18T14:58:21.397Z,28
2023-04-18T14:59:25.973Z,28
2023-04-18T15:00:29.520Z,28
2023-04-18T15:01:24.048Z,28
2023-04-18T15:02:21.451Z,30
2023-04-18T15:03:22.442Z,29
2023-04-18T15:04:26.027Z,29
2023-04-18T15:05:21.974Z,29
2023-04-18T15:06:31.678Z,28
2023-04-18T15:07:24.736Z,29
2023-04-18T15:08:24.363Z,29
2023-04-18T15:09:20.150Z,28
2023-04-18T15:10:24.810Z,28
2023-04-18T15:11:25.873Z,28
2023-04-18T15:12:21.901Z,29
2023-04-18T15:13:23.726Z,29
2023-04-18T15:14:27.717Z,29
2023-04-18T15:15:23.811Z,29
2023-04-18T15:16:20.237Z,30
2023-04-18T15:17:31.000Z,29
2023-04-18T15:18:21.233Z,30
2023-04-18T15:19:21.878Z,30
2023-04-18T15:20:26.950Z,29